LFMP/PGF METAR and TAF weather

Enter ICAO airport designator
Station Type Date Time Source
LFMP METAR 2019/12/14 19:30 UTC NOAA

LFMP 141930Z AUTO 28005KT 9999 FEW056 11/08 Q1012 TEMPO 17010KT


Station Type Date Time Source
LFMP Decoded METAR 2019/12/14 19:30 UTC NOAA

Perpignan, France (LFMP) 42-44N 002-52E 48M
Dec 14, 2019 - 02:30 PM EST / 2019.12.14 1930 UTC
Wind: from the W (280 degrees) at 6 MPH (5 KT):0
Visibility: greater than 7 mile(s):0
Sky conditions: mostly clear
Temperature: 51 F (11 C)
Dew Point: 46 F (8 C)
Relative Humidity: 81%
Pressure (altimeter): 29.88 in. Hg (1012 hPa)
ob: LFMP 141930Z AUTO 28005KT 9999 FEW056 11/08 Q1012 TEMPO 17010KT
cycle: 19

Station Type Date Time Source
LFMP TAF 2019/12/14 15:21 UTC NOAA

TAF TAF LFMP 141400Z 1415/1515 30010KT CAVOK
BECMG 1415/1417 VRB05KT
TEMPO 1420/1423 17010KT PROB30
TEMPO 1423/1506 4000 BR
BECMG 1506/1509 OVC010

Example: see airport list